createdAt,value
2019-04-10T00:02:13.552Z,100262.42
2019-04-10T00:04:45.290Z,100261.80
2019-04-10T00:07:18.364Z,100265.96
2019-04-10T00:09:48.358Z,100270.77
2019-04-10T00:12:19.034Z,100269.34
2019-04-10T00:14:50.459Z,100268.06
2019-04-10T00:17:21.162Z,100267.45
2019-04-10T00:19:52.106Z,100267.70
2019-04-10T00:22:22.788Z,100261.22
2019-04-10T00:24:54.574Z,100259.04
2019-04-10T00:27:26.256Z,100260.58
2019-04-10T00:29:57.000Z,100259.67
2019-04-10T00:32:27.969Z,100257.77
2019-04-10T00:34:58.638Z,100257.51
2019-04-10T00:37:31.151Z,100262.01
2019-04-10T00:40:01.727Z,100258.88
2019-04-10T00:42:32.841Z,100258.25
2019-04-10T00:45:04.437Z,100258.61
2019-04-10T00:47:35.388Z,100248.44
2019-04-10T00:50:08.480Z,100243.92
2019-04-10T00:52:39.283Z,100248.34
2019-04-10T00:55:11.236Z,100245.08
2019-04-10T00:57:42.476Z,100246.83
2019-04-10T01:00:15.442Z,100247.98
2019-04-10T01:02:47.097Z,100252.32
2019-04-10T01:05:17.827Z,100253.86
2019-04-10T01:07:48.675Z,100243.95
2019-04-10T01:10:20.451Z,100245.94
2019-04-10T01:12:52.267Z,100248.00
2019-04-10T01:15:23.083Z,100249.22
2019-04-10T01:17:54.770Z,100246.00
2019-04-10T01:20:25.828Z,100244.72
2019-04-10T01:22:57.315Z,100239.97
2019-04-10T01:25:28.387Z,100242.26
2019-04-10T01:27:59.101Z,100235.59
2019-04-10T01:30:30.558Z,100234.80
2019-04-10T01:33:01.305Z,100237.39
2019-04-10T01:35:32.154Z,100237.03
2019-04-10T01:38:05.893Z,100232.12
2019-04-10T01:40:35.739Z,100228.73
2019-04-10T01:43:12.826Z,100231.33
2019-04-10T01:45:40.042Z,100232.44
2019-04-10T01:48:10.743Z,100222.93
2019-04-10T01:50:42.314Z,100220.39
2019-04-10T01:53:13.398Z,100222.34
2019-04-10T01:55:44.164Z,100226.09
2019-04-10T01:58:17.010Z,100217.55
2019-04-10T02:00:50.672Z,100221.87
2019-04-10T02:03:22.211Z,100222.98
2019-04-10T02:05:54.604Z,100220.30
2019-04-10T02:08:25.749Z,100222.72
2019-04-10T02:10:56.633Z,100224.84
2019-04-10T02:13:27.669Z,100214.70
2019-04-10T02:15:58.607Z,100217.02
2019-04-10T02:18:29.658Z,100222.05
2019-04-10T02:21:01.157Z,100221.50
2019-04-10T02:23:32.295Z,100214.69
2019-04-10T02:26:03.252Z,100217.91
2019-04-10T02:28:36.017Z,100218.42
2019-04-10T02:31:07.200Z,100217.22
2019-04-10T02:33:38.772Z,100222.97
2019-04-10T02:36:10.859Z,100218.06
2019-04-10T02:38:54.524Z,100216.63
2019-04-10T02:41:14.320Z,100213.48
2019-04-10T02:43:45.393Z,100216.33
2019-04-10T02:46:16.279Z,100216.22
2019-04-10T02:48:47.650Z,100208.93
2019-04-10T02:51:19.995Z,100208.20
2019-04-10T02:53:53.071Z,100209.95
2019-04-10T02:56:25.255Z,100213.90
2019-04-10T02:58:56.634Z,100204.20
2019-04-10T03:01:27.600Z,100206.94
2019-04-10T03:03:59.236Z,100209.31
2019-04-10T03:06:31.182Z,100214.70
2019-04-10T03:09:14.702Z,100208.77
2019-04-10T03:11:35.366Z,100208.25
2019-04-10T03:14:07.975Z,100214.38
2019-04-10T03:16:39.576Z,100208.51
2019-04-10T03:19:11.643Z,100217.55
2019-04-10T03:21:43.030Z,100205.88
2019-04-10T03:24:13.955Z,100203.92
2019-04-10T03:26:45.754Z,100209.47
2019-04-10T03:29:16.481Z,100207.78
2019-04-10T03:31:48.185Z,100183.94
2019-04-10T03:34:28.984Z,100213.16
2019-04-10T03:37:01.770Z,100206.31
2019-04-10T03:39:35.816Z,100204.41
2019-04-10T03:42:06.534Z,100206.10
2019-04-10T03:44:38.884Z,100206.63
2019-04-10T03:47:09.554Z,100205.52
2019-04-10T03:49:40.224Z,100204.68
2019-04-10T03:52:11.462Z,100211.47
2019-04-10T03:54:42.183Z,100205.72
2019-04-10T03:57:12.906Z,100213.30
2019-04-10T03:59:43.666Z,100218.31
2019-04-10T04:02:15.605Z,100213.41
2019-04-10T04:04:47.969Z,100216.27
2019-04-10T04:07:19.657Z,100213.63
2019-04-10T04:09:50.325Z,100216.17
2019-04-10T04:12:21.007Z,100221.03
2019-04-10T04:14:52.729Z,100217.85
2019-04-10T04:17:24.218Z,100229.63
2019-04-10T04:19:54.919Z,100221.45
2019-04-10T04:22:25.919Z,100221.80
2019-04-10T04:24:56.628Z,100228.25
2019-04-10T04:27:27.310Z,100229.84
2019-04-10T04:29:59.548Z,100233.19
2019-04-10T04:32:31.518Z,100230.94
2019-04-10T04:35:02.463Z,100231.62
2019-04-10T04:37:33.584Z,100236.94
2019-04-10T04:40:05.612Z,100234.66
2019-04-10T04:42:36.589Z,100215.75
2019-04-10T04:45:08.696Z,100234.78
2019-04-10T04:47:39.847Z,100235.73
2019-04-10T04:50:10.578Z,100238.00
2019-04-10T04:52:41.268Z,100247.83
2019-04-10T04:55:12.282Z,100251.65
2019-04-10T04:57:43.320Z,100215.26
2019-04-10T05:00:15.241Z,100247.22
2019-04-10T05:02:47.017Z,100256.70
2019-04-10T05:05:18.495Z,100257.41
2019-04-10T05:07:58.496Z,100260.63
2019-04-10T05:10:21.623Z,100263.61
2019-04-10T05:12:53.620Z,100266.50
2019-04-10T05:15:24.874Z,100266.72
2019-04-10T05:17:55.719Z,100270.06
2019-04-10T05:20:38.731Z,100265.70
2019-04-10T05:22:59.928Z,100268.22
2019-04-10T05:25:31.595Z,100271.41
2019-04-10T05:28:02.299Z,100234.47
2019-04-10T05:30:33.504Z,100272.08
2019-04-10T05:33:04.262Z,100272.52
2019-04-10T05:35:35.095Z,100275.08
2019-04-10T05:38:05.761Z,100279.47
2019-04-10T05:40:36.732Z,100278.00
2019-04-10T05:43:07.633Z,100278.11
2019-04-10T05:45:38.345Z,100274.17
2019-04-10T05:48:09.045Z,100278.40
2019-04-10T05:50:39.885Z,100271.80
2019-04-10T05:53:10.618Z,100271.92
2019-04-10T05:55:41.426Z,100275.52
2019-04-10T05:58:13.380Z,100276.89
2019-04-10T06:00:45.046Z,100271.64
2019-04-10T06:03:16.515Z,100274.69
2019-04-10T06:05:47.297Z,100275.05
2019-04-10T06:08:18.183Z,100270.00
2019-04-10T06:10:49.860Z,100273.26
2019-04-10T06:13:20.607Z,100275.59
2019-04-10T06:15:51.292Z,100269.03
2019-04-10T06:18:22.845Z,100275.25
2019-04-10T06:20:54.694Z,100269.81
2019-04-10T06:23:25.677Z,100270.16
2019-04-10T06:25:56.618Z,100264.77
2019-04-10T06:28:27.961Z,100262.95
2019-04-10T06:31:00.660Z,100265.88
2019-04-10T06:33:31.822Z,100264.25
2019-04-10T06:36:02.907Z,100263.84
2019-04-10T06:38:34.997Z,100263.91
2019-04-10T06:41:06.230Z,100269.06
2019-04-10T06:43:37.233Z,100275.56
2019-04-10T06:46:08.440Z,100265.79
2019-04-10T06:48:40.315Z,100265.24
2019-04-10T06:51:12.295Z,100271.66
2019-04-10T06:53:43.367Z,100267.97
2019-04-10T06:56:14.986Z,100266.98
2019-04-10T06:58:45.701Z,100272.91
2019-04-10T07:01:16.728Z,100276.89
2019-04-10T07:03:57.547Z,100275.06
2019-04-10T07:06:22.284Z,100275.49
2019-04-10T07:08:53.306Z,100276.72
2019-04-10T07:11:29.192Z,100268.62
2019-04-10T07:13:57.375Z,100273.84
2019-04-10T07:16:31.517Z,100273.33
2019-04-10T07:19:05.598Z,100269.94
2019-04-10T07:21:36.090Z,100279.34
2019-04-10T07:24:09.260Z,100274.11
2019-04-10T07:26:43.148Z,100272.24
2019-04-10T07:29:15.592Z,100262.41
2019-04-10T07:31:44.675Z,100282.78
2019-04-10T07:34:19.693Z,100284.03
2019-04-10T07:36:48.351Z,100286.00
2019-04-10T07:39:19.010Z,100285.88
2019-04-10T07:41:49.692Z,100260.49
2019-04-10T07:44:20.362Z,100276.21
2019-04-10T07:46:51.298Z,100283.58
2019-04-10T07:49:22.215Z,100286.75
2019-04-10T07:51:54.349Z,100285.73
2019-04-10T07:54:25.033Z,100278.02
2019-04-10T07:56:55.771Z,100298.22
2019-04-10T07:59:27.462Z,100288.23
2019-04-10T08:01:58.454Z,100290.66
2019-04-10T08:04:29.196Z,100298.59
2019-04-10T08:07:01.553Z,100291.20
2019-04-10T08:09:33.396Z,100296.14
2019-04-10T08:12:05.121Z,100289.03
2019-04-10T08:14:37.871Z,100295.83
2019-04-10T08:17:08.649Z,100295.41
2019-04-10T08:19:41.603Z,100292.73
2019-04-10T08:22:13.132Z,100298.98
2019-04-10T08:24:47.172Z,100297.31
2019-04-10T08:27:19.317Z,100297.91
2019-04-10T08:29:50.612Z,100300.75
2019-04-10T08:32:21.891Z,100296.41
2019-04-10T08:34:52.696Z,100293.01
2019-04-10T08:37:24.186Z,100300.05
2019-04-10T08:39:55.047Z,100296.28
2019-04-10T08:42:26.595Z,100301.35
2019-04-10T08:44:57.559Z,100295.83
2019-04-10T08:47:28.242Z,100297.34
2019-04-10T08:49:59.272Z,100295.02
2019-04-10T08:52:30.440Z,100298.36
2019-04-10T08:55:01.882Z,100297.61
2019-04-10T08:57:34.081Z,100295.28
2019-04-10T09:00:08.266Z,100295.19
2019-04-10T09:02:39.035Z,100291.17
2019-04-10T09:05:11.244Z,100301.64
2019-04-10T09:07:42.308Z,100293.41
2019-04-10T09:10:14.348Z,100297.41
2019-04-10T09:12:45.146Z,100292.20
2019-04-10T09:15:16.213Z,100294.63
2019-04-10T09:17:47.255Z,100295.50
2019-04-10T09:20:18.497Z,100285.38
2019-04-10T09:23:10.765Z,100292.86
2019-04-10T09:25:22.894Z,100291.66
2019-04-10T09:27:54.029Z,100299.42
2019-04-10T09:30:26.917Z,100303.51
2019-04-10T09:32:57.645Z,100301.67
2019-04-10T09:35:28.749Z,100293.69
2019-04-10T09:37:59.530Z,100297.81
2019-04-10T09:40:30.486Z,100295.95
2019-04-10T09:43:01.192Z,100287.61
2019-04-10T09:45:32.325Z,100282.20
2019-04-10T09:48:04.191Z,100276.75
2019-04-10T09:50:35.426Z,100277.41
2019-04-10T09:53:06.405Z,100281.49
2019-04-10T09:55:38.294Z,100283.84
2019-04-10T09:58:11.741Z,100282.58
2019-04-10T10:00:43.761Z,100277.96
2019-04-10T10:03:15.261Z,100276.16
2019-04-10T10:05:46.668Z,100275.03
2019-04-10T10:08:18.372Z,100270.41
2019-04-10T10:10:49.212Z,100271.47
2019-04-10T10:13:21.393Z,100273.53
2019-04-10T10:15:52.242Z,100276.39
2019-04-10T10:18:23.484Z,100278.46
2019-04-10T10:20:54.312Z,100283.93
2019-04-10T10:23:25.632Z,100274.28
2019-04-10T10:25:56.720Z,100282.62
2019-04-10T10:28:27.503Z,100253.84
2019-04-10T10:30:58.203Z,100273.48
2019-04-10T10:33:29.889Z,100270.77
2019-04-10T10:36:01.008Z,100271.16
2019-04-10T10:38:32.026Z,100274.30
2019-04-10T10:41:02.757Z,100278.84
2019-04-10T10:43:34.304Z,100266.83
2019-04-10T10:46:05.693Z,100271.65
2019-04-10T10:48:36.455Z,100270.98
2019-04-10T10:51:08.673Z,100273.55
2019-04-10T10:53:40.664Z,100260.49
2019-04-10T10:56:11.914Z,100268.59
2019-04-10T10:58:42.621Z,100264.37
2019-04-10T11:01:13.707Z,100270.02
2019-04-10T11:03:44.745Z,100265.31
2019-04-10T11:06:16.657Z,100270.63
2019-04-10T11:08:48.358Z,100261.03
2019-04-10T11:11:20.028Z,100267.28
2019-04-10T11:13:50.819Z,100270.16
2019-04-10T11:16:23.195Z,100261.08
2019-04-10T11:18:55.034Z,100261.09
2019-04-10T11:21:27.376Z,100253.50
2019-04-10T11:23:58.426Z,100296.83
2019-04-10T11:26:30.307Z,100262.77
2019-04-10T11:29:01.597Z,100257.44
2019-04-10T11:31:33.310Z,100268.38
2019-04-10T11:34:04.218Z,100262.09
2019-04-10T11:36:36.117Z,100260.91
2019-04-10T11:39:17.127Z,100264.97
2019-04-10T11:41:41.316Z,100273.38
2019-04-10T11:44:14.306Z,100262.55
2019-04-10T11:46:44.684Z,100265.80
2019-04-10T11:49:17.810Z,100264.05
2019-04-10T11:51:50.876Z,100261.88
2019-04-10T11:54:26.457Z,100260.21
2019-04-10T11:56:58.317Z,100265.97
2019-04-10T11:59:28.679Z,100267.34
2019-04-10T12:02:03.502Z,100267.75
2019-04-10T12:04:43.530Z,100274.48
2019-04-10T12:07:05.988Z,100267.08
2019-04-10T12:12:09.206Z,100272.61
2019-04-10T12:14:39.911Z,100278.49
2019-04-10T12:17:11.681Z,100278.66
2019-04-10T12:19:44.548Z,100269.98
2019-04-10T12:22:15.767Z,100276.33
2019-04-10T12:24:49.613Z,100281.49
2019-04-10T12:27:18.893Z,100287.80
2019-04-10T12:29:49.661Z,100277.83
2019-04-10T12:32:20.842Z,100280.98
2019-04-10T12:34:53.075Z,100275.30
2019-04-10T12:37:23.755Z,100282.16
2019-04-10T12:39:55.147Z,100288.81
2019-04-10T12:42:26.160Z,100275.00
2019-04-10T12:44:57.826Z,100287.50
2019-04-10T12:47:28.548Z,100284.52
2019-04-10T12:50:00.269Z,100286.97
2019-04-10T12:52:31.001Z,100283.48
2019-04-10T12:55:02.045Z,100284.68
2019-04-10T12:57:32.998Z,100277.02
2019-04-10T13:00:06.753Z,100287.69
2019-04-10T13:02:38.614Z,100290.85
2019-04-10T13:05:11.294Z,100300.84
2019-04-10T13:07:42.014Z,100289.66
2019-04-10T13:10:13.147Z,100283.84
2019-04-10T13:12:45.167Z,100286.17
2019-04-10T13:15:17.336Z,100283.19
2019-04-10T13:17:49.037Z,100278.01
2019-04-10T13:20:20.432Z,100283.30
2019-04-10T13:22:51.160Z,100291.98
2019-04-10T13:25:22.365Z,100292.59
2019-04-10T13:27:53.401Z,100283.66
2019-04-10T13:30:25.028Z,100290.43
2019-04-10T13:32:56.150Z,100284.28
2019-04-10T13:35:28.387Z,100281.00
2019-04-10T13:37:59.202Z,100283.67
2019-04-10T13:40:29.957Z,100287.33
2019-04-10T13:43:01.326Z,100278.50
2019-04-10T13:45:32.417Z,100286.30
2019-04-10T13:48:04.001Z,100280.97
2019-04-10T13:50:34.866Z,100284.84
2019-04-10T13:53:05.829Z,100289.00
2019-04-10T13:55:36.990Z,100280.67
2019-04-10T13:58:08.843Z,100285.02
2019-04-10T14:00:41.573Z,100282.00
2019-04-10T14:03:12.366Z,100282.30
2019-04-10T14:05:43.291Z,100289.61
2019-04-10T14:08:14.619Z,100292.22
2019-04-10T14:10:46.719Z,100286.89
2019-04-10T14:13:17.922Z,100281.96
2019-04-10T14:15:48.729Z,100293.47
2019-04-10T14:18:19.930Z,100298.98
2019-04-10T14:20:51.312Z,100300.47
2019-04-10T14:23:24.058Z,100298.33
2019-04-10T14:26:02.869Z,100306.14
2019-04-10T14:28:35.431Z,100306.64
2019-04-10T14:31:24.601Z,100291.69
2019-04-10T14:33:56.541Z,100300.67
2019-04-10T14:36:28.419Z,100298.69
2019-04-10T14:39:10.522Z,100300.31
2019-04-10T14:41:33.760Z,100305.55
2019-04-10T14:44:06.071Z,100298.19
2019-04-10T14:46:37.999Z,100304.91
2019-04-10T14:49:09.020Z,100309.80
2019-04-10T14:51:40.807Z,100304.25
2019-04-10T14:54:11.864Z,100302.61
2019-04-10T14:56:43.244Z,100302.52
2019-04-10T14:59:13.966Z,100306.73
2019-04-10T15:01:44.676Z,100296.64
2019-04-10T15:04:17.286Z,100293.66
2019-04-10T15:06:48.408Z,100301.96
2019-04-10T15:09:25.559Z,100300.16
2019-04-10T15:11:53.915Z,100314.87
2019-04-10T15:14:25.733Z,100300.27
2019-04-10T15:17:02.662Z,100309.94
2019-04-10T15:19:30.356Z,100311.95
2019-04-10T15:22:01.195Z,100305.88
2019-04-10T15:24:33.180Z,100315.30
2019-04-10T15:27:04.841Z,100314.92
2019-04-10T15:29:36.436Z,100313.28
2019-04-10T15:32:08.441Z,100313.13
2019-04-10T15:34:39.606Z,100322.00
2019-04-10T15:37:11.004Z,100314.89
2019-04-10T15:39:43.295Z,100317.27
2019-04-10T15:42:14.490Z,100318.69
2019-04-10T15:44:46.042Z,100332.31
2019-04-10T15:47:22.178Z,100324.59
2019-04-10T15:49:49.516Z,100334.63
2019-04-10T15:52:20.534Z,100328.31
2019-04-10T15:54:53.357Z,100330.87
2019-04-10T15:57:24.897Z,100329.84
2019-04-10T15:59:56.680Z,100329.66
2019-04-10T16:02:27.977Z,100330.80
2019-04-10T16:05:01.340Z,100331.41
2019-04-10T16:07:34.209Z,100334.83
2019-04-10T16:10:28.859Z,100333.19
2019-04-10T16:13:17.642Z,100340.22
2019-04-10T16:15:48.503Z,100332.16
2019-04-10T16:18:21.141Z,100338.44
2019-04-10T16:20:54.887Z,100337.25
2019-04-10T16:23:29.749Z,100339.92
2019-04-10T16:26:00.958Z,100342.02
2019-04-10T16:28:31.755Z,100337.73
2019-04-10T16:31:03.375Z,100339.75
2019-04-10T16:33:34.294Z,100346.41
2019-04-10T16:36:05.379Z,100351.73
2019-04-10T16:38:37.211Z,100350.83
2019-04-10T16:41:08.283Z,100352.05
2019-04-10T16:43:40.397Z,100361.81
2019-04-10T16:46:11.243Z,100350.73
2019-04-10T16:48:42.282Z,100349.14
2019-04-10T16:51:12.937Z,100347.15
2019-04-10T16:53:44.152Z,100349.34
2019-04-10T16:56:15.811Z,100353.86
2019-04-10T16:58:46.489Z,100356.34
2019-04-10T17:01:18.212Z,100354.70
2019-04-10T17:03:49.765Z,100356.31
2019-04-10T17:06:21.711Z,100356.66
2019-04-10T17:08:52.730Z,100363.63
2019-04-10T17:11:23.410Z,100365.22
2019-04-10T17:13:55.053Z,100371.10
2019-04-10T17:16:26.151Z,100370.43
2019-04-10T17:18:57.259Z,100373.13
2019-04-10T17:21:30.551Z,100384.01
2019-04-10T17:24:00.869Z,100384.77
2019-04-10T17:26:32.883Z,100386.37
2019-04-10T17:29:05.047Z,100386.95
2019-04-10T17:31:38.320Z,100388.42
2019-04-10T17:34:10.129Z,100395.25
2019-04-10T17:36:41.363Z,100394.18
2019-04-10T17:39:16.140Z,100403.36
2019-04-10T17:41:46.431Z,100404.72
2019-04-10T17:44:17.982Z,100406.09
2019-04-10T17:46:49.171Z,100403.39
2019-04-10T17:49:20.364Z,100413.00
2019-04-10T17:51:52.341Z,100417.37
2019-04-10T17:54:23.222Z,100424.14
2019-04-10T17:56:54.954Z,100429.70
2019-04-10T17:59:26.731Z,100426.64
2019-04-10T18:01:59.435Z,100428.44
2019-04-10T18:04:31.920Z,100433.16
2019-04-10T18:07:03.918Z,100443.78
2019-04-10T18:09:35.460Z,100444.94
2019-04-10T18:12:08.043Z,100449.30
2019-04-10T18:14:40.896Z,100454.71
2019-04-10T18:17:11.371Z,100460.20
2019-04-10T18:19:42.223Z,100468.16
2019-04-10T18:22:12.910Z,100464.98
2019-04-10T18:24:45.327Z,100465.55
2019-04-10T18:27:16.401Z,100481.47
2019-04-10T18:29:47.560Z,100483.38
2019-04-10T18:32:18.725Z,100485.03
2019-04-10T18:34:50.064Z,100492.45
2019-04-10T18:37:24.067Z,100493.03
2019-04-10T18:39:54.891Z,100496.23
2019-04-10T18:42:26.704Z,100502.88
2019-04-10T18:44:57.714Z,100507.96
2019-04-10T18:47:32.042Z,100514.47
2019-04-10T18:50:02.703Z,100510.00
2019-04-10T18:52:51.778Z,100517.39
2019-04-10T18:55:24.586Z,100519.77
2019-04-10T18:57:57.099Z,100526.33
2019-04-10T19:00:48.569Z,100525.68
2019-04-10T19:03:47.963Z,100533.84
2019-04-10T19:06:26.719Z,100532.64
2019-04-10T19:09:07.741Z,100538.39
2019-04-10T19:11:35.254Z,100544.22
2019-04-10T19:14:04.220Z,100551.12
2019-04-10T19:16:35.622Z,100554.86
2019-04-10T19:19:06.728Z,100559.32
2019-04-10T19:21:37.720Z,100561.32
2019-04-10T19:24:08.512Z,100567.26
2019-04-10T19:26:39.916Z,100567.17
2019-04-10T19:29:11.093Z,100570.06
2019-04-10T19:31:43.705Z,100569.77
2019-04-10T19:34:14.967Z,100581.55
2019-04-10T19:36:45.975Z,100578.69
2019-04-10T19:39:18.075Z,100582.87
2019-04-10T19:41:49.608Z,100584.09
2019-04-10T19:44:21.150Z,100580.03
2019-04-10T19:46:52.124Z,100579.24
2019-04-10T19:49:23.908Z,100581.53
2019-04-10T19:51:55.957Z,100578.84
2019-04-10T19:54:40.946Z,100572.44
2019-04-10T19:57:05.098Z,100582.30
2019-04-10T19:59:35.856Z,100580.02
2019-04-10T20:02:06.731Z,100572.34
2019-04-10T20:04:37.400Z,100584.66
2019-04-10T20:07:09.047Z,100589.42
2019-04-10T20:09:40.997Z,100584.88
2019-04-10T20:12:12.828Z,100593.08
2019-04-10T20:14:44.384Z,100600.81
2019-04-10T20:17:15.723Z,100601.81
2019-04-10T20:19:46.765Z,100606.59
2019-04-10T20:22:18.843Z,100608.91
2019-04-10T20:24:50.802Z,100617.73
2019-04-10T20:27:23.658Z,100620.97
2019-04-10T20:29:55.223Z,100618.94
2019-04-10T20:32:30.180Z,100618.58
2019-04-10T20:35:02.244Z,100617.84
2019-04-10T20:37:34.451Z,100625.32
2019-04-10T20:40:06.817Z,100627.98
2019-04-10T20:42:38.246Z,100630.03
2019-04-10T20:45:09.438Z,100628.48
2019-04-10T20:47:41.287Z,100633.77
2019-04-10T20:50:12.453Z,100636.39
2019-04-10T20:52:43.561Z,100637.23
2019-04-10T20:55:14.536Z,100645.41
2019-04-10T20:57:45.828Z,100648.06
2019-04-10T21:00:22.328Z,100649.16
2019-04-10T21:02:55.087Z,100646.25
2019-04-10T21:05:26.218Z,100657.20
2019-04-10T21:07:57.380Z,100636.75
2019-04-10T21:10:29.053Z,100648.19
2019-04-10T21:13:01.112Z,100650.70
2019-04-10T21:15:33.339Z,100650.91
2019-04-10T21:18:04.723Z,100652.23
2019-04-10T21:20:36.614Z,100653.70
2019-04-10T21:23:07.612Z,100657.64
2019-04-10T21:25:39.453Z,100657.88
2019-04-10T21:28:10.246Z,100656.44
2019-04-10T21:30:58.847Z,100667.25
2019-04-10T21:33:43.175Z,100652.45
2019-04-10T21:36:13.855Z,100658.12
2019-04-10T21:38:44.892Z,100669.73
2019-04-10T21:41:17.859Z,100671.41
2019-04-10T21:43:50.850Z,100669.24
2019-04-10T21:46:22.202Z,100669.82
2019-04-10T21:48:53.124Z,100673.17
2019-04-10T21:51:25.218Z,100668.03
2019-04-10T21:53:56.588Z,100675.34
2019-04-10T21:56:27.331Z,100671.72
2019-04-10T21:58:59.041Z,100676.26
2019-04-10T22:01:30.446Z,100676.50
2019-04-10T22:04:02.731Z,100683.47
2019-04-10T22:06:38.270Z,100674.09
2019-04-10T22:09:10.437Z,100678.63
2019-04-10T22:11:45.499Z,100684.28
2019-04-10T22:14:17.143Z,100683.56
2019-04-10T22:16:48.493Z,100683.91
2019-04-10T22:19:21.021Z,100689.05
2019-04-10T22:21:52.026Z,100690.91
2019-04-10T22:24:23.524Z,100692.06
2019-04-10T22:26:54.383Z,100695.65
2019-04-10T22:29:25.981Z,100692.53
2019-04-10T22:31:57.736Z,100692.02
2019-04-10T22:34:29.818Z,100691.41
2019-04-10T22:37:00.773Z,100698.42
2019-04-10T22:39:31.744Z,100702.25
2019-04-10T22:42:03.357Z,100704.75
2019-04-10T22:44:40.263Z,100705.77
2019-04-10T22:47:07.846Z,100705.87
2019-04-10T22:49:39.304Z,100711.70
2019-04-10T22:52:10.953Z,100710.58
2019-04-10T22:54:42.297Z,100715.75
2019-04-10T22:57:13.057Z,100715.44
2019-04-10T22:59:43.727Z,100719.83
2019-04-10T23:02:16.108Z,100718.51
2019-04-10T23:04:47.097Z,100719.73
2019-04-10T23:07:18.050Z,100725.86
2019-04-10T23:09:48.853Z,100724.38
2019-04-10T23:12:20.349Z,100728.11
2019-04-10T23:14:51.246Z,100719.61
2019-04-10T23:17:22.142Z,100725.25
2019-04-10T23:19:54.197Z,100727.55
2019-04-10T23:22:25.257Z,100735.37
2019-04-10T23:24:56.078Z,100727.12
2019-04-10T23:27:26.904Z,100727.30
2019-04-10T23:29:58.724Z,100727.32
2019-04-10T23:32:29.403Z,100737.45
2019-04-10T23:35:01.153Z,100738.39
2019-04-10T23:37:33.053Z,100742.77
2019-04-10T23:40:04.961Z,100741.07
2019-04-10T23:42:36.025Z,100740.61
2019-04-10T23:45:07.573Z,100741.73
2019-04-10T23:47:38.305Z,100739.28
2019-04-10T23:50:10.045Z,100742.21
2019-04-10T23:52:40.785Z,100739.41
2019-04-10T23:55:11.508Z,100739.17
2019-04-10T23:57:43.236Z,100734.61
